createdAt,value
2019-04-02T00:00:28.300Z,4.10
2019-04-02T00:01:28.316Z,4.20
2019-04-02T00:02:28.325Z,4.60
2019-04-02T00:03:26.826Z,3.90
2019-04-02T00:04:27.033Z,4.20
2019-04-02T00:05:28.819Z,4.20
2019-04-02T00:06:27.385Z,4.40
2019-04-02T00:07:28.988Z,4.60
2019-04-02T00:08:31.299Z,4.20
2019-04-02T00:09:35.809Z,4.20
2019-04-02T00:10:39.834Z,4.20
2019-04-02T00:11:29.307Z,4.20
2019-04-02T00:12:30.310Z,4.20
2019-04-02T00:13:30.320Z,4.40
2019-04-02T00:14:32.296Z,4.10
2019-04-02T00:15:30.800Z,4.00
2019-04-02T00:16:32.799Z,4.00
2019-04-02T00:17:29.257Z,4.30
2019-04-02T00:18:32.346Z,4.30
2019-04-02T00:19:31.299Z,4.20
2019-04-02T00:20:29.886Z,4.20
2019-04-02T00:21:31.236Z,4.70
2019-04-02T00:22:33.811Z,5.00
2019-04-02T00:23:32.322Z,5.20
2019-04-02T00:24:30.625Z,4.70
2019-04-02T00:25:32.807Z,4.70
2019-04-02T00:26:31.002Z,4.90
2019-04-02T00:27:34.797Z,4.50
2019-04-02T00:28:31.387Z,4.20
2019-04-02T00:29:35.318Z,5.10
2019-04-02T00:30:33.306Z,4.40
2019-04-02T00:31:32.047Z,4.60
2019-04-02T00:32:33.811Z,4.50
2019-04-02T00:33:32.273Z,4.30
2019-04-02T00:34:32.511Z,4.10
2019-04-02T00:35:35.237Z,4.30
2019-04-02T00:36:32.760Z,4.50
2019-04-02T00:37:32.966Z,4.80
2019-04-02T00:38:35.319Z,4.40
2019-04-02T00:39:35.389Z,4.30
2019-04-02T00:40:35.300Z,4.50
2019-04-02T00:41:33.758Z,4.40
2019-04-02T00:42:35.799Z,4.80
2019-04-02T00:43:34.129Z,4.70
2019-04-02T00:44:38.304Z,4.70
2019-04-02T00:45:36.300Z,5.00
2019-04-02T00:46:36.304Z,4.60
2019-04-02T00:47:36.314Z,5.00
2019-04-02T00:48:36.807Z,4.70
2019-04-02T00:49:38.810Z,5.40
2019-04-02T00:50:38.817Z,5.30
2019-04-02T00:51:39.299Z,4.80
2019-04-02T00:52:37.301Z,5.00
2019-04-02T00:53:35.746Z,4.90
2019-04-02T00:54:39.797Z,5.10
2019-04-02T00:55:36.141Z,4.20
2019-04-02T00:56:37.845Z,4.40
2019-04-02T00:57:38.302Z,4.70
2019-04-02T00:58:37.633Z,4.40
2019-04-02T00:59:37.876Z,4.70
2019-04-02T01:00:37.971Z,4.90
2019-04-02T01:01:52.817Z,4.50
2019-04-02T01:02:41.314Z,4.60
2019-04-02T01:03:37.503Z,4.70
2019-04-02T01:04:41.298Z,4.70
2019-04-02T01:05:37.866Z,4.90
2019-04-02T01:06:39.816Z,4.40
2019-04-02T01:07:39.797Z,4.50
2019-04-02T01:08:38.412Z,4.60
2019-04-02T01:09:40.301Z,4.40
2019-04-02T01:10:42.297Z,4.70
2019-04-02T01:11:40.809Z,4.60
2019-04-02T01:12:40.802Z,4.40
2019-04-02T01:13:54.805Z,4.80
2019-04-02T01:14:39.522Z,5.00
2019-04-02T01:15:41.297Z,4.90
2019-04-02T01:16:42.109Z,4.70
2019-04-02T01:17:51.845Z,5.00
2019-04-02T01:19:01.073Z,4.90
2019-04-02T01:19:47.802Z,5.40
2019-04-02T01:20:40.509Z,5.20
2019-04-02T01:21:48.341Z,4.70
2019-04-02T01:22:44.798Z,5.40
2019-04-02T01:23:42.795Z,5.00
2019-04-02T01:24:41.249Z,4.70
2019-04-02T01:25:41.451Z,4.90
2019-04-02T01:26:41.647Z,5.20
2019-04-02T01:27:41.847Z,4.90
2019-04-02T01:28:42.060Z,4.90
2019-04-02T01:29:43.273Z,4.70
2019-04-02T01:30:45.235Z,4.90
2019-04-02T01:31:44.681Z,5.20
2019-04-02T01:32:42.778Z,5.00
2019-04-02T01:33:43.975Z,4.70
2019-04-02T01:34:44.813Z,5.10
2019-04-02T01:35:43.245Z,4.90
2019-04-02T01:36:43.452Z,4.90
2019-04-02T01:37:46.093Z,4.90
2019-04-02T01:38:43.859Z,5.30
2019-04-02T01:39:45.803Z,5.40
2019-04-02T01:40:51.804Z,5.20
2019-04-02T01:41:44.408Z,5.00
2019-04-02T01:42:48.328Z,4.90
2019-04-02T01:43:46.299Z,4.50
2019-04-02T01:44:45.021Z,5.00
2019-04-02T01:46:00.797Z,4.70
2019-04-02T01:46:47.293Z,4.70
2019-04-02T01:47:45.374Z,4.60
2019-04-02T01:48:45.602Z,5.00
2019-04-02T01:49:47.302Z,4.60
2019-04-02T01:50:47.798Z,4.60
2019-04-02T01:51:46.009Z,5.00
2019-04-02T01:52:46.215Z,4.90
2019-04-02T01:53:48.299Z,5.20
2019-04-02T01:54:48.300Z,4.50
2019-04-02T01:55:46.744Z,4.80
2019-04-02T01:56:46.946Z,4.80
2019-04-02T01:57:50.086Z,4.90
2019-04-02T01:58:51.297Z,4.90
2019-04-02T01:59:49.267Z,5.20
2019-04-02T02:00:50.791Z,4.50
2019-04-02T02:01:47.902Z,4.90
2019-04-02T02:02:54.813Z,4.90
2019-04-02T02:03:51.810Z,4.80
2019-04-02T02:04:49.388Z,4.80
2019-04-02T02:05:48.606Z,4.90
2019-04-02T02:06:48.819Z,5.10
2019-04-02T02:07:50.027Z,5.10
2019-04-02T02:08:50.797Z,5.10
2019-04-02T02:09:49.419Z,4.80
2019-04-02T02:10:49.976Z,4.90
2019-04-02T02:11:50.800Z,4.90
2019-04-02T02:12:56.000Z,5.00
2019-04-02T02:13:50.197Z,5.10
2019-04-02T02:14:57.313Z,4.90
2019-04-02T02:15:51.548Z,5.20
2019-04-02T02:16:51.674Z,5.40
2019-04-02T02:17:52.603Z,5.10
2019-04-02T02:18:52.816Z,5.10
2019-04-02T02:19:51.034Z,5.30
2019-04-02T02:20:51.228Z,4.80
2019-04-02T02:21:53.307Z,4.90
2019-04-02T02:22:51.631Z,5.20
2019-04-02T02:23:53.801Z,5.10
2019-04-02T02:24:53.030Z,5.00
2019-04-02T02:25:53.181Z,5.20
2019-04-02T02:26:57.344Z,5.10
2019-04-02T02:27:52.603Z,5.10
2019-04-02T02:28:53.669Z,5.00
2019-04-02T02:29:56.811Z,5.00
2019-04-02T02:30:53.030Z,5.10
2019-04-02T02:31:53.120Z,5.30
2019-04-02T02:32:56.306Z,5.20
2019-04-02T02:33:55.302Z,5.40
2019-04-02T02:34:53.623Z,5.70
2019-04-02T02:35:54.838Z,5.30
2019-04-02T02:36:55.803Z,5.60
2019-04-02T02:37:57.837Z,5.90
2019-04-02T02:38:54.460Z,5.70
2019-04-02T02:39:56.344Z,5.60
2019-04-02T02:41:02.269Z,5.60
2019-04-02T02:41:56.798Z,5.90
2019-04-02T02:42:58.818Z,6.00
2019-04-02T02:43:56.805Z,5.70
2019-04-02T02:44:55.377Z,5.70
2019-04-02T02:45:55.587Z,6.20
2019-04-02T02:46:57.301Z,6.00
2019-04-02T02:48:01.996Z,5.60
2019-04-02T02:48:57.769Z,5.80
2019-04-02T02:49:58.299Z,5.80
2019-04-02T02:50:58.346Z,5.60
2019-04-02T02:51:58.298Z,5.70
2019-04-02T02:52:56.805Z,5.70
2019-04-02T02:53:56.924Z,5.70
2019-04-02T02:55:04.809Z,5.50
2019-04-02T02:55:57.243Z,6.00
2019-04-02T02:56:59.350Z,5.80
2019-04-02T02:57:59.305Z,5.80
2019-04-02T02:58:58.756Z,6.10
2019-04-02T02:59:57.978Z,5.90
2019-04-02T03:01:05.802Z,6.30
2019-04-02T03:02:00.300Z,6.20
2019-04-02T03:02:59.922Z,5.80
2019-04-02T03:03:59.927Z,5.70
2019-04-02T03:05:00.607Z,5.90
2019-04-02T03:06:14.832Z,6.00
2019-04-02T03:07:03.762Z,5.90
2019-04-02T03:08:02.852Z,6.30
2019-04-02T03:09:03.306Z,6.50
2019-04-02T03:10:04.389Z,6.30
2019-04-02T03:11:01.799Z,6.20
2019-04-02T03:12:01.126Z,6.60
2019-04-02T03:13:01.335Z,5.90
2019-04-02T03:14:01.262Z,6.50
2019-04-02T03:15:02.296Z,6.10
2019-04-02T03:16:01.903Z,6.40
2019-04-02T03:17:02.345Z,6.50
2019-04-02T03:18:03.745Z,6.80
2019-04-02T03:19:01.320Z,6.40
2019-04-02T03:20:03.295Z,6.70
2019-04-02T03:21:03.302Z,6.20
2019-04-02T03:22:03.818Z,6.10
2019-04-02T03:23:03.801Z,6.40
2019-04-02T03:24:03.846Z,6.40
2019-04-02T03:25:02.465Z,6.00
2019-04-02T03:26:06.334Z,6.20
2019-04-02T03:27:02.808Z,6.00
2019-04-02T03:28:03.005Z,5.80
2019-04-02T03:29:04.810Z,6.00
2019-04-02T03:30:05.310Z,5.80
2019-04-02T03:31:05.348Z,7.00
2019-04-02T03:32:10.441Z,7.00
2019-04-02T03:33:03.897Z,6.90
2019-04-02T03:34:11.367Z,6.60
2019-04-02T03:35:04.274Z,7.20
2019-04-02T03:36:05.131Z,6.20
2019-04-02T03:37:05.796Z,6.10
2019-04-02T03:38:07.472Z,6.00
2019-04-02T03:39:07.186Z,5.90
2019-04-02T03:40:08.979Z,5.90
2019-04-02T03:41:06.808Z,6.10
2019-04-02T03:42:10.315Z,6.00
2019-04-02T03:43:05.477Z,6.30
2019-04-02T03:44:09.308Z,6.30
2019-04-02T03:45:07.794Z,6.00
2019-04-02T03:46:06.040Z,6.30
2019-04-02T03:47:08.748Z,6.30
2019-04-02T03:48:08.297Z,6.10
2019-04-02T03:49:07.287Z,6.20
2019-04-02T03:50:06.776Z,6.30
2019-04-02T03:51:07.874Z,6.10
2019-04-02T03:52:08.096Z,6.10
2019-04-02T03:53:14.795Z,6.30
2019-04-02T03:54:08.495Z,6.10
2019-04-02T03:55:07.700Z,6.10
2019-04-02T03:56:07.911Z,6.30
2019-04-02T03:57:09.128Z,6.60
2019-04-02T03:58:09.241Z,6.30
2019-04-02T03:59:08.339Z,6.40
2019-04-02T04:00:10.299Z,5.90
2019-04-02T04:01:08.766Z,6.40
2019-04-02T04:02:37.793Z,6.10
2019-04-02T04:03:19.597Z,6.20
2019-04-02T04:04:25.903Z,6.10
2019-04-02T04:05:17.292Z,6.40
2019-04-02T04:06:09.621Z,6.10
2019-04-02T04:07:10.759Z,6.40
2019-04-02T04:08:12.754Z,6.20
2019-04-02T04:09:11.798Z,6.50
2019-04-02T04:10:16.820Z,6.40
2019-04-02T04:11:11.641Z,6.90
2019-04-02T04:12:18.328Z,6.90
2019-04-02T04:13:13.147Z,6.50
2019-04-02T04:14:11.021Z,6.50
2019-04-02T04:15:15.247Z,6.60
2019-04-02T04:16:12.412Z,6.70
2019-04-02T04:17:14.265Z,6.60
2019-04-02T04:18:13.295Z,6.40
2019-04-02T04:19:11.889Z,6.20
2019-04-02T04:20:41.182Z,7.20
2019-04-02T04:21:12.207Z,6.90
2019-04-02T04:22:14.345Z,6.50
2019-04-02T04:23:12.606Z,6.40
2019-04-02T04:24:12.723Z,6.30
2019-04-02T04:25:14.798Z,6.30
2019-04-02T04:26:14.800Z,6.60
2019-04-02T04:27:14.792Z,6.60
2019-04-02T04:28:14.799Z,6.60
2019-04-02T04:29:15.296Z,6.70
2019-04-02T04:30:15.313Z,6.70
2019-04-02T04:31:25.533Z,6.10
2019-04-02T04:32:15.830Z,6.40
2019-04-02T04:33:15.797Z,6.20
2019-04-02T04:34:15.262Z,6.40
2019-04-02T04:35:16.306Z,6.80
2019-04-02T04:36:15.532Z,6.40
2019-04-02T04:37:18.254Z,6.40
2019-04-02T04:38:16.768Z,6.70
2019-04-02T04:39:22.798Z,6.30
2019-04-02T04:40:30.793Z,6.80
2019-04-02T04:41:16.791Z,6.50
2019-04-02T04:42:15.479Z,6.50
2019-04-02T04:43:18.249Z,5.90
2019-04-02T04:44:20.913Z,6.20
2019-04-02T04:45:21.467Z,6.20
2019-04-02T04:46:15.991Z,6.30
2019-04-02T04:47:18.520Z,6.40
2019-04-02T04:48:18.296Z,6.30
2019-04-02T04:49:18.293Z,5.50
2019-04-02T04:50:17.251Z,6.30
2019-04-02T04:51:18.795Z,6.10
2019-04-02T04:52:32.839Z,6.40
2019-04-02T04:53:18.751Z,6.50
2019-04-02T04:54:19.293Z,6.80
2019-04-02T04:55:18.534Z,6.40
2019-04-02T04:56:19.319Z,6.60
2019-04-02T04:57:17.791Z,6.80
2019-04-02T04:58:54.796Z,6.60
2019-04-02T04:59:19.234Z,7.10
2019-04-02T05:00:24.320Z,7.20
2019-04-02T05:01:20.282Z,7.20
2019-04-02T05:02:36.247Z,7.20
2019-04-02T05:03:21.794Z,6.80
2019-04-02T05:04:19.288Z,7.10
2019-04-02T05:05:41.392Z,7.00
2019-04-02T05:06:23.297Z,7.30
2019-04-02T05:07:23.315Z,7.20
2019-04-02T05:08:20.943Z,7.00
2019-04-02T05:09:21.789Z,7.30
2019-04-02T05:10:21.805Z,7.50
2019-04-02T05:11:29.265Z,7.30
2019-04-02T05:12:22.292Z,7.10
2019-04-02T05:13:20.754Z,7.00
2019-04-02T05:14:24.812Z,7.00
2019-04-02T05:15:24.811Z,7.10
2019-04-02T05:16:24.797Z,6.80
2019-04-02T05:17:29.310Z,7.20
2019-04-02T05:18:23.299Z,6.80
2019-04-02T05:19:21.738Z,7.50
2019-04-02T05:20:21.948Z,7.10
2019-04-02T05:21:23.822Z,7.00
2019-04-02T05:22:22.283Z,7.30
2019-04-02T05:23:29.323Z,7.00
2019-04-02T05:24:27.306Z,7.10
2019-04-02T05:25:24.811Z,7.20
2019-04-02T05:26:26.801Z,7.70
2019-04-02T05:27:23.233Z,7.20
2019-04-02T05:28:26.351Z,6.70
2019-04-02T05:29:26.294Z,7.00
2019-04-02T05:30:23.753Z,7.00
2019-04-02T05:31:39.803Z,6.80
2019-04-02T05:32:25.799Z,7.10
2019-04-02T05:33:25.807Z,7.90
2019-04-02T05:34:27.119Z,7.40
2019-04-02T05:35:26.338Z,7.90
2019-04-02T05:36:26.294Z,7.60
2019-04-02T05:37:26.840Z,7.30
2019-04-02T05:38:26.799Z,7.20
2019-04-02T05:39:27.339Z,7.10
2019-04-02T05:40:28.251Z,6.60
2019-04-02T05:41:25.724Z,6.70
2019-04-02T05:42:29.811Z,7.30
2019-04-02T05:43:27.833Z,6.60
2019-04-02T05:44:27.792Z,6.50
2019-04-02T05:45:30.296Z,6.50
2019-04-02T05:46:28.292Z,6.70
2019-04-02T05:47:28.307Z,6.30
2019-04-02T05:48:38.865Z,6.60
2019-04-02T05:49:29.300Z,6.40
2019-04-02T05:50:27.356Z,5.90
2019-04-02T05:51:29.295Z,6.90
2019-04-02T05:52:29.301Z,6.20
2019-04-02T05:53:30.608Z,6.70
2019-04-02T05:54:29.638Z,6.20
2019-04-02T05:55:29.796Z,6.20
2019-04-02T05:56:44.497Z,6.20
2019-04-02T05:57:29.402Z,6.30
2019-04-02T05:58:35.327Z,6.30
2019-04-02T05:59:30.305Z,5.90
2019-04-02T06:00:30.815Z,6.30
2019-04-02T06:01:30.829Z,6.70
2019-04-02T06:02:30.824Z,6.50
2019-04-02T06:03:29.287Z,7.50
2019-04-02T06:04:29.498Z,6.30
2019-04-02T06:05:33.923Z,5.70
2019-04-02T06:06:32.750Z,6.20
2019-04-02T06:07:30.112Z,6.10
2019-04-02T06:08:31.824Z,6.30
2019-04-02T06:09:38.293Z,6.20
2019-04-02T06:10:32.608Z,5.90
2019-04-02T06:11:32.259Z,6.10
2019-04-02T06:12:31.033Z,6.40
2019-04-02T06:13:32.794Z,5.90
2019-04-02T06:14:31.390Z,6.10
2019-04-02T06:15:31.577Z,5.80
2019-04-02T06:16:33.299Z,6.50
2019-04-02T06:17:31.997Z,6.40
2019-04-02T06:18:32.220Z,6.30
2019-04-02T06:19:46.451Z,6.00
2019-04-02T06:20:32.642Z,6.10
2019-04-02T06:21:36.795Z,6.10
2019-04-02T06:22:33.003Z,6.40
2019-04-02T06:23:33.209Z,6.30
2019-04-02T06:24:37.296Z,5.90
2019-04-02T06:25:34.636Z,6.30
2019-04-02T06:26:33.832Z,5.70
2019-04-02T06:27:34.040Z,6.10
2019-04-02T06:28:34.255Z,6.10
2019-04-02T06:29:34.456Z,6.10
2019-04-02T06:30:36.295Z,5.90
2019-04-02T06:31:34.869Z,6.20
2019-04-02T06:32:36.821Z,6.00
2019-04-02T06:33:35.280Z,6.30
2019-04-02T06:34:35.491Z,6.20
2019-04-02T06:35:35.704Z,6.50
2019-04-02T06:36:37.796Z,6.70
2019-04-02T06:37:36.150Z,6.40
2019-04-02T06:38:40.293Z,6.50
2019-04-02T06:39:36.492Z,6.60
2019-04-02T06:40:36.714Z,6.20
2019-04-02T06:41:36.922Z,6.30
2019-04-02T06:42:38.861Z,6.00
2019-04-02T06:43:40.080Z,6.00
2019-04-02T06:44:37.556Z,6.30
2019-04-02T06:45:37.764Z,6.10
2019-04-02T06:46:37.980Z,6.20
2019-04-02T06:47:39.796Z,6.20
2019-04-02T06:48:40.301Z,6.50
2019-04-02T06:49:38.509Z,6.80
2019-04-02T06:50:38.721Z,6.80
2019-04-02T06:51:41.057Z,6.20
2019-04-02T06:52:39.171Z,6.40
2019-04-02T06:53:39.357Z,6.10
2019-04-02T06:54:39.578Z,5.90
2019-04-02T06:55:39.804Z,5.80
2019-04-02T06:56:40.007Z,6.10
2019-04-02T06:57:41.490Z,6.20
2019-04-02T06:58:40.453Z,6.10
2019-04-02T06:59:44.293Z,6.30
2019-04-02T07:00:40.888Z,6.00
2019-04-02T07:01:41.111Z,6.10
2019-04-02T07:02:41.324Z,6.40
2019-04-02T07:03:43.296Z,6.00
2019-04-02T07:04:41.751Z,6.10
2019-04-02T07:05:43.799Z,6.80
2019-04-02T07:06:42.000Z,6.20
2019-04-02T07:07:42.491Z,6.10
2019-04-02T07:08:47.319Z,6.10
2019-04-02T07:09:45.358Z,6.30
2019-04-02T07:10:44.802Z,6.50
2019-04-02T07:11:46.846Z,6.40
2019-04-02T07:12:44.815Z,6.70
2019-04-02T07:13:43.323Z,6.50
2019-04-02T07:14:46.332Z,6.70
2019-04-02T07:15:45.158Z,6.00
2019-04-02T07:16:45.797Z,6.40
2019-04-02T07:17:44.153Z,6.10
2019-04-02T07:18:46.298Z,6.30
2019-04-02T07:19:44.505Z,6.80
2019-04-02T07:20:48.301Z,6.10
2019-04-02T07:21:44.910Z,6.20
2019-04-02T07:22:45.141Z,6.30
2019-04-02T07:23:49.294Z,6.20
2019-04-02T07:24:47.305Z,5.90
2019-04-02T07:25:49.305Z,6.30
2019-04-02T07:26:45.916Z,6.60
2019-04-02T07:27:46.106Z,6.50
2019-04-02T07:28:48.338Z,6.20
2019-04-02T07:29:50.308Z,6.10
2019-04-02T07:30:48.786Z,6.20
2019-04-02T07:31:49.755Z,6.20
2019-04-02T07:32:51.758Z,6.50
2019-04-02T07:33:48.108Z,6.40
2019-04-02T07:35:04.251Z,6.90
2019-04-02T07:35:55.300Z,6.20
2019-04-02T07:36:47.634Z,6.30
2019-04-02T07:37:55.800Z,6.10
2019-04-02T07:38:48.049Z,6.20
2019-04-02T07:39:48.206Z,7.30
2019-04-02T07:40:50.298Z,6.70
2019-04-02T07:41:49.284Z,5.90
2019-04-02T07:42:50.301Z,6.40
2019-04-02T07:44:12.263Z,6.40
2019-04-02T07:44:48.976Z,6.20
2019-04-02T07:45:49.199Z,5.80
2019-04-02T07:46:49.675Z,6.40
2019-04-02T07:48:00.484Z,6.60
2019-04-02T07:48:49.868Z,6.60
2019-04-02T07:49:50.903Z,6.20
2019-04-02T07:50:51.007Z,6.10
2019-04-02T07:51:54.272Z,6.30
2019-04-02T07:53:06.298Z,6.40
2019-04-02T07:53:54.410Z,6.20
2019-04-02T07:56:25.408Z,6.10
2019-04-02T07:57:26.440Z,6.20
2019-04-02T07:58:23.792Z,6.00
2019-04-02T07:59:25.910Z,5.80
2019-04-02T08:00:24.242Z,6.00
2019-04-02T08:01:33.846Z,6.30
2019-04-02T08:02:26.390Z,5.80
2019-04-02T08:03:26.925Z,6.20
2019-04-02T08:04:25.155Z,6.40
2019-04-02T08:05:27.368Z,6.40
2019-04-02T08:06:32.776Z,6.40
2019-04-02T08:07:25.729Z,6.40
2019-04-02T08:08:27.893Z,6.70
2019-04-02T08:09:26.100Z,6.00
2019-04-02T08:10:26.316Z,6.60
2019-04-02T08:11:26.545Z,7.00
2019-04-02T08:12:30.420Z,6.70
2019-04-02T08:13:34.893Z,7.20
2019-04-02T08:14:28.892Z,7.20
2019-04-02T08:15:27.244Z,6.50
2019-04-02T08:16:33.425Z,6.50
2019-04-02T08:17:34.398Z,6.40
2019-04-02T08:18:28.853Z,7.10
2019-04-02T08:19:31.423Z,7.20
2019-04-02T08:20:52.223Z,7.30
2019-04-02T08:21:34.900Z,7.30
2019-04-02T08:22:31.354Z,7.30
2019-04-02T08:23:29.291Z,6.80
2019-04-02T08:24:30.968Z,6.60
2019-04-02T08:25:30.905Z,6.80
2019-04-02T08:26:32.999Z,6.90
2019-04-02T08:27:29.627Z,7.10
2019-04-02T08:28:31.868Z,6.60
2019-04-02T08:29:32.230Z,6.50
2019-04-02T08:30:30.202Z,6.90
2019-04-02T08:31:31.138Z,7.00
2019-04-02T08:32:30.573Z,6.70
2019-04-02T08:33:59.401Z,7.40
2019-04-02T08:34:31.411Z,6.90
2019-04-02T08:35:34.893Z,7.70
2019-04-02T08:37:07.895Z,6.60
2019-04-02T08:37:37.551Z,6.30
2019-04-02T08:38:33.401Z,7.10
2019-04-02T08:39:33.850Z,7.30
2019-04-02T08:40:32.873Z,7.00
2019-04-02T08:41:35.897Z,6.80
2019-04-02T08:42:32.355Z,6.90
2019-04-02T08:43:35.502Z,6.70
2019-04-02T08:44:34.401Z,6.80
2019-04-02T08:45:34.401Z,7.00
2019-04-02T08:46:33.862Z,7.30
2019-04-02T08:47:35.895Z,6.80
2019-04-02T08:48:40.896Z,6.80
2019-04-02T08:49:33.519Z,7.00
2019-04-02T08:50:33.621Z,6.70
2019-04-02T08:51:35.444Z,7.00
2019-04-02T08:52:34.010Z,7.00
2019-04-02T08:53:34.288Z,6.90
2019-04-02T08:54:36.877Z,7.10
2019-04-02T08:55:36.403Z,6.70
2019-04-02T08:56:38.406Z,6.90
2019-04-02T08:57:34.995Z,7.20
2019-04-02T08:58:37.333Z,6.70
2019-04-02T08:59:36.384Z,6.70
2019-04-02T09:00:35.623Z,6.90
2019-04-02T09:01:35.848Z,6.80
2019-04-02T09:02:53.862Z,7.20
2019-04-02T09:03:37.941Z,6.80
2019-04-02T09:04:36.404Z,7.40
2019-04-02T09:05:40.176Z,7.00
2019-04-02T09:06:46.855Z,6.60
2019-04-02T09:07:37.878Z,6.70
2019-04-02T09:08:39.487Z,6.90
2019-04-02T09:09:37.277Z,7.00
2019-04-02T09:10:37.464Z,6.80
2019-04-02T09:11:40.297Z,7.20
2019-04-02T09:12:38.917Z,7.20
2019-04-02T09:13:38.264Z,7.20
2019-04-02T09:14:41.901Z,7.60
2019-04-02T09:15:41.865Z,7.20
2019-04-02T09:16:41.361Z,7.50
2019-04-02T09:17:39.857Z,7.30
2019-04-02T09:18:40.902Z,7.50
2019-04-02T09:19:45.933Z,7.40
2019-04-02T09:21:05.868Z,7.50
2019-04-02T09:21:43.748Z,7.40
2019-04-02T09:22:41.307Z,7.50
2019-04-02T09:23:41.409Z,7.50
2019-04-02T09:24:40.000Z,7.70
2019-04-02T09:25:41.218Z,7.60
2019-04-02T09:26:40.424Z,7.40
2019-04-02T09:27:41.399Z,7.40
2019-04-02T09:28:56.405Z,7.40
2019-04-02T09:29:56.902Z,7.10
2019-04-02T09:30:48.262Z,7.30
2019-04-02T09:32:03.420Z,7.30
2019-04-02T09:32:41.602Z,7.40
2019-04-02T09:33:42.891Z,7.90
2019-04-02T09:34:42.007Z,7.70
2019-04-02T09:35:43.915Z,7.40
2019-04-02T09:36:43.902Z,7.30
2019-04-02T09:37:42.630Z,7.10
2019-04-02T09:38:44.411Z,7.50
2019-04-02T09:39:43.665Z,7.50
2019-04-02T09:40:43.212Z,7.70
2019-04-02T09:41:45.673Z,7.30
2019-04-02T09:42:45.416Z,7.70
2019-04-02T09:43:56.397Z,7.60
2019-04-02T09:44:45.030Z,7.50
2019-04-02T09:45:44.134Z,7.50
2019-04-02T09:46:44.634Z,7.70
2019-04-02T09:47:46.074Z,7.90
2019-04-02T09:48:46.424Z,7.60
2019-04-02T09:49:45.918Z,7.50
2019-04-02T09:50:46.868Z,8.00
2019-04-02T09:51:46.939Z,8.00
2019-04-02T09:52:46.212Z,8.20
2019-04-02T09:53:45.636Z,7.90
2019-04-02T09:54:47.425Z,8.00
2019-04-02T09:55:49.242Z,7.40
2019-04-02T09:56:46.268Z,7.90
2019-04-02T09:57:46.378Z,7.70
2019-04-02T09:58:47.883Z,7.70
2019-04-02T09:59:48.452Z,8.00
2019-04-02T10:00:48.858Z,7.70
2019-04-02T10:01:48.117Z,8.00
2019-04-02T10:02:50.902Z,7.50
2019-04-02T10:03:50.690Z,7.90
2019-04-02T10:04:49.406Z,7.30
2019-04-02T10:05:49.410Z,7.80
2019-04-02T10:06:50.922Z,7.90
2019-04-02T10:08:12.951Z,7.40
2019-04-02T10:08:49.352Z,7.90
2019-04-02T10:09:53.333Z,8.10
2019-04-02T10:10:52.682Z,7.80
2019-04-02T10:11:54.748Z,7.90
2019-04-02T10:12:52.698Z,8.00
2019-04-02T10:13:50.922Z,7.80
2019-04-02T10:14:55.461Z,7.90
2019-04-02T10:16:12.409Z,7.70
2019-04-02T10:16:51.912Z,7.60
2019-04-02T10:17:51.941Z,7.80
2019-04-02T10:18:52.603Z,7.90
2019-04-02T10:19:51.419Z,8.00
2019-04-02T10:20:52.008Z,8.70
2019-04-02T10:21:52.910Z,8.10
2019-04-02T10:22:52.907Z,8.30
2019-04-02T10:23:55.578Z,8.20
2019-04-02T10:25:08.245Z,8.10
2019-04-02T10:25:53.507Z,8.40
2019-04-02T10:26:53.015Z,8.20
2019-04-02T10:27:53.910Z,8.30
2019-04-02T10:28:53.628Z,8.30
2019-04-02T10:29:56.162Z,8.20
2019-04-02T10:30:56.413Z,8.70
2019-04-02T10:31:54.429Z,8.40
2019-04-02T10:32:56.374Z,8.50
2019-04-02T10:33:54.947Z,8.40
2019-04-02T10:34:57.461Z,8.70
2019-04-02T10:35:57.259Z,8.20
2019-04-02T10:36:56.778Z,8.50
2019-04-02T10:38:02.021Z,8.30
2019-04-02T10:38:54.098Z,8.10
2019-04-02T10:39:56.263Z,8.10
2019-04-02T10:40:58.409Z,8.80
2019-04-02T10:42:10.415Z,8.20
2019-04-02T10:42:56.911Z,8.70
2019-04-02T10:43:55.133Z,8.30
2019-04-02T10:44:56.942Z,8.80
2019-04-02T10:45:55.559Z,8.60
2019-04-02T10:46:57.409Z,8.60
2019-04-02T10:48:18.050Z,8.20
2019-04-02T10:49:12.136Z,8.90
2019-04-02T10:49:58.906Z,8.80
2019-04-02T10:51:00.639Z,8.90
2019-04-02T10:52:01.275Z,9.00
2019-04-02T10:52:59.387Z,8.50
2019-04-02T10:53:57.111Z,8.60
2019-04-02T10:54:59.747Z,8.50
2019-04-02T10:55:58.701Z,8.70
2019-04-02T10:56:59.542Z,9.00
2019-04-02T10:58:07.780Z,8.90
2019-04-02T10:59:00.083Z,10.10
2019-04-02T10:59:58.378Z,9.80
2019-04-02T11:00:58.510Z,10.40
2019-04-02T11:02:04.619Z,10.60
2019-04-02T11:02:59.186Z,10.70
2019-04-02T11:04:00.390Z,11.00
2019-04-02T11:05:02.553Z,11.20
2019-04-02T11:06:07.297Z,10.90
2019-04-02T11:07:00.928Z,11.00
2019-04-02T11:08:02.498Z,10.60
2019-04-02T11:09:04.364Z,10.90
2019-04-02T11:10:01.920Z,10.70
2019-04-02T11:11:02.026Z,10.70
2019-04-02T11:12:03.139Z,11.20
2019-04-02T11:13:03.247Z,12.00
2019-04-02T11:14:08.198Z,11.70
2019-04-02T11:15:05.589Z,11.70
2019-04-02T11:16:06.885Z,11.70
2019-04-02T11:17:05.753Z,11.40
2019-04-02T11:18:07.459Z,11.40
2019-04-02T11:19:10.150Z,11.70
2019-04-02T11:20:02.178Z,12.40
2019-04-02T11:21:08.365Z,11.20
2019-04-02T11:22:06.875Z,11.20
2019-04-02T11:23:06.375Z,11.10
2019-04-02T11:24:06.807Z,11.80
2019-04-02T11:25:04.928Z,12.60
2019-04-02T11:26:04.910Z,11.70
2019-04-02T11:27:03.506Z,11.80
2019-04-02T11:28:04.740Z,12.70
2019-04-02T11:29:05.910Z,12.40
2019-04-02T11:30:10.921Z,12.60
2019-04-02T11:31:07.915Z,13.40
2019-04-02T11:32:09.871Z,13.50
2019-04-02T11:33:07.377Z,12.90
2019-04-02T11:34:05.896Z,12.30
2019-04-02T11:35:06.573Z,12.40
2019-04-02T11:36:06.388Z,13.50
2019-04-02T11:37:14.731Z,13.40
2019-04-02T11:38:13.411Z,13.80
2019-04-02T11:39:07.410Z,14.30
2019-04-02T11:40:07.915Z,14.00
2019-04-02T11:41:06.127Z,14.10
2019-04-02T11:42:06.354Z,13.50
2019-04-02T11:43:06.614Z,13.60
2019-04-02T11:44:08.411Z,13.50
2019-04-02T11:45:06.889Z,13.70
2019-04-02T11:46:08.372Z,14.10
2019-04-02T11:47:10.367Z,13.70
2019-04-02T11:48:09.427Z,13.90
2019-04-02T11:49:09.468Z,13.80
2019-04-02T11:50:11.411Z,13.90
2019-04-02T11:51:09.900Z,14.30
2019-04-02T11:52:09.923Z,14.10
2019-04-02T11:53:15.916Z,15.10
2019-04-02T11:54:19.250Z,17.00
2019-04-02T11:55:10.462Z,17.40
2019-04-02T11:56:09.091Z,17.20
2019-04-02T11:57:10.917Z,17.80
2019-04-02T11:58:16.655Z,16.90
2019-04-02T11:59:32.422Z,16.70
2019-04-02T12:00:15.378Z,18.00
2019-04-02T12:01:10.103Z,18.30
2019-04-02T12:02:11.326Z,17.80
2019-04-02T12:03:10.544Z,17.20
2019-04-02T12:04:11.424Z,17.00
2019-04-02T12:05:20.841Z,17.70
2019-04-02T12:06:13.413Z,18.40
2019-04-02T12:07:14.916Z,18.10
2019-04-02T12:08:15.564Z,17.90
2019-04-02T12:09:13.418Z,18.70
2019-04-02T12:10:13.420Z,18.30
2019-04-02T12:11:11.877Z,17.60
2019-04-02T12:12:13.919Z,18.50
2019-04-02T12:13:12.251Z,17.90
2019-04-02T12:14:16.417Z,17.80
2019-04-02T12:15:39.886Z,17.60
2019-04-02T12:16:15.776Z,18.60
2019-04-02T12:17:13.652Z,18.60
2019-04-02T12:18:14.433Z,18.30
2019-04-02T12:19:14.495Z,18.40
2019-04-02T12:20:15.396Z,18.30
2019-04-02T12:21:17.172Z,18.50
2019-04-02T12:22:16.393Z,18.30
2019-04-02T12:23:14.277Z,18.80
2019-04-02T12:24:15.420Z,18.60
2019-04-02T12:25:22.429Z,18.60
2019-04-02T12:26:18.802Z,19.50
2019-04-02T12:27:15.004Z,19.00
2019-04-02T12:28:15.257Z,19.00
2019-04-02T12:29:17.877Z,18.90
2019-04-02T12:30:15.478Z,19.20
2019-04-02T12:31:22.578Z,18.90
2019-04-02T12:32:16.906Z,19.40
2019-04-02T12:33:17.937Z,19.30
2019-04-02T12:34:18.369Z,18.10
2019-04-02T12:35:19.921Z,18.10
2019-04-02T12:36:18.426Z,18.10
2019-04-02T12:37:18.424Z,18.80
2019-04-02T12:38:18.422Z,18.20
2019-04-02T12:39:20.422Z,17.70
2019-04-02T12:40:32.951Z,18.50
2019-04-02T12:41:20.352Z,19.40
2019-04-02T12:42:25.434Z,18.90
2019-04-02T12:43:23.424Z,17.80
2019-04-02T12:44:18.055Z,19.10
2019-04-02T12:45:20.919Z,18.50
2019-04-02T12:46:18.877Z,18.30
2019-04-02T12:47:19.939Z,17.60
2019-04-02T12:48:26.891Z,17.80
2019-04-02T12:49:21.827Z,18.00
2019-04-02T12:50:20.933Z,18.50
2019-04-02T12:51:20.184Z,17.50
2019-04-02T12:52:20.930Z,19.30
2019-04-02T12:53:20.887Z,18.70
2019-04-02T12:54:21.554Z,19.30
2019-04-02T12:55:21.923Z,18.50
2019-04-02T12:56:21.927Z,19.60
2019-04-02T12:57:20.394Z,18.80
2019-04-02T12:58:22.445Z,18.60
2019-04-02T12:59:22.423Z,18.60
2019-04-02T13:00:20.998Z,18.40
2019-04-02T13:01:23.309Z,18.10
2019-04-02T13:02:22.384Z,18.90
2019-04-02T13:03:29.422Z,18.70
2019-04-02T13:04:42.651Z,18.90
2019-04-02T13:05:25.423Z,18.80
2019-04-02T13:06:23.961Z,19.20
2019-04-02T13:07:24.966Z,19.00
2019-04-02T13:08:23.358Z,19.10
2019-04-02T13:09:23.193Z,19.10
2019-04-02T13:10:22.615Z,19.50
2019-04-02T13:11:30.964Z,19.10
2019-04-02T13:12:24.428Z,18.70
2019-04-02T13:13:26.966Z,20.10
2019-04-02T13:14:27.223Z,20.30
2019-04-02T13:15:25.156Z,20.50
2019-04-02T13:16:24.388Z,20.00
2019-04-02T13:17:27.424Z,20.10